Time;durP1;ratioP1;P1;durP2;ratioP2;P2;SDS_P1;SDS_P2;PMS_P1;PMS_P2;Temp;Humidity;BMP_temperature;BMP_pressure;BME280_temperature;BME280_humidity;BME280_pressure;Samples;Min_cycle;Max_cycle;Signal;HPM_P1;HPM_P2
2021/01/07 00:00:15;;;;;;;5.37;4.80;;;6.00;99.90;;;;;;5031807;28;20214;-59
2021/01/07 00:02:41;;;;;;;7.97;4.80;;;6.00;99.90;;;;;;5031847;28;20222;-61
2021/01/07 00:05:08;;;;;;;6.20;5.30;;;6.00;99.90;;;;;;5031283;28;20595;-61
2021/01/07 00:07:36;;;;;;;6.40;5.80;;;5.90;99.90;;;;;;5032008;28;20233;-60
2021/01/07 00:10:04;;;;;;;6.13;5.33;;;6.00;99.90;;;;;;5031899;28;20206;-60
2021/01/07 00:12:30;;;;;;;5.90;5.30;;;6.00;99.90;;;;;;5031989;28;20198;-61
2021/01/07 00:14:56;;;;;;;6.67;5.60;;;5.90;99.90;;;;;;5031496;28;20610;-60
2021/01/07 00:17:22;;;;;;;5.43;4.93;;;5.90;99.90;;;;;;5032201;28;20205;-61
2021/01/07 00:19:49;;;;;;;6.77;5.27;;;5.90;99.90;;;;;;5031463;28;20202;-60
2021/01/07 00:22:15;;;;;;;7.27;5.47;;;5.90;99.90;;;;;;5031908;28;20222;-60
2021/01/07 00:24:42;;;;;;;10.30;7.13;;;5.90;99.90;;;;;;5031290;28;20611;-60
2021/01/07 00:27:08;;;;;;;5.90;5.30;;;6.00;99.90;;;;;;5031733;28;20203;-59
2021/01/07 00:29:34;;;;;;;6.27;5.63;;;5.90;99.90;;;;;;5031490;28;20210;-61
2021/01/07 00:32:00;;;;;;;5.73;5.13;;;5.90;99.90;;;;;;5031916;28;20206;-61
2021/01/07 00:34:26;;;;;;;6.47;5.67;;;5.90;99.90;;;;;;5031894;28;20280;-61
2021/01/07 00:36:56;;;;;;;9.60;5.70;;;5.90;99.90;;;;;;5032010;28;20221;-60
2021/01/07 00:39:23;;;;;;;6.47;5.70;;;5.90;99.90;;;;;;5031372;28;20225;-61
2021/01/07 00:41:54;;;;;;;6.97;6.10;;;5.90;99.90;;;;;;5031644;28;20724;-60
2021/01/07 00:44:21;;;;;;;7.40;5.87;;;5.90;99.90;;;;;;5031056;28;20263;-60
2021/01/07 00:46:47;;;;;;;7.17;6.37;;;5.90;99.90;;;;;;5031451;28;20650;-60
2021/01/07 00:49:13;;;;;;;6.40;5.70;;;5.90;99.90;;;;;;5030990;28;20206;-60
2021/01/07 00:51:40;;;;;;;6.50;5.90;;;5.90;99.90;;;;;;5031575;28;20581;-60
2021/01/07 00:54:06;;;;;;;6.30;5.70;;;5.90;99.90;;;;;;5031122;28;20260;-60
2021/01/07 00:56:35;;;;;;;8.70;6.23;;;5.90;99.90;;;;;;5030959;28;20230;-60
2021/01/07 00:59:04;;;;;;;8.03;6.30;;;6.00;99.90;;;;;;5030796;28;20753;-60
2021/01/07 01:01:30;;;;;;;6.90;5.93;;;6.00;99.90;;;;;;5031249;28;20265;-61
2021/01/07 01:03:56;;;;;;;8.20;6.40;;;5.90;99.90;;;;;;5030834;28;20202;-61
2021/01/07 01:06:29;;;;;;;7.23;6.23;;;5.90;99.90;;;;;;5030751;28;20709;-60
2021/01/07 01:08:56;;;;;;;6.90;6.13;;;5.90;99.90;;;;;;5030515;28;20213;-60
2021/01/07 01:11:22;;;;;;;6.87;6.17;;;5.90;99.90;;;;;;5030506;28;20686;-60
2021/01/07 01:13:48;;;;;;;6.90;6.23;;;5.90;99.90;;;;;;5030913;28;20209;-59
2021/01/07 01:16:15;;;;;;;7.50;6.70;;;6.00;99.90;;;;;;5030336;28;20261;-59
2021/01/07 01:18:41;;;;;;;9.53;5.97;;;5.90;99.90;;;;;;5030337;28;20678;-60
2021/01/07 01:21:07;;;;;;;7.73;6.67;;;6.00;99.90;;;;;;5030704;28;20301;-60
2021/01/07 01:23:34;;;;;;;7.30;6.40;;;5.90;99.90;;;;;;5030414;28;20241;-60
2021/01/07 01:26:00;;;;;;;7.20;6.50;;;5.90;99.90;;;;;;5031096;28;20226;-60
2021/01/07 01:28:27;;;;;;;8.30;6.90;;;5.90;99.90;;;;;;5030794;28;20564;-59
2021/01/07 01:30:53;;;;;;;7.67;6.77;;;5.90;99.90;;;;;;5030843;28;20655;-60
2021/01/07 01:33:20;;;;;;;7.47;6.67;;;5.90;99.90;;;;;;5030641;28;20264;-59
2021/01/07 01:35:46;;;;;;;7.50;6.70;;;5.90;99.90;;;;;;5030373;28;20733;-60
2021/01/07 01:38:12;;;;;;;7.60;6.63;;;5.90;99.90;;;;;;5030725;28;20217;-60
2021/01/07 01:40:38;;;;;;;7.63;6.67;;;5.90;99.90;;;;;;5030779;28;20209;-60
2021/01/07 01:43:04;;;;;;;8.93;7.37;;;5.90;99.90;;;;;;5031086;28;20233;-60
2021/01/07 01:45:31;;;;;;;8.93;6.67;;;6.00;99.90;;;;;;5034019;28;20725;-60
2021/01/07 01:47:57;;;;;;;7.40;6.70;;;6.00;99.90;;;;;;5034197;28;20210;-59
2021/01/07 01:50:24;;;;;;;8.03;6.37;;;6.20;99.90;;;;;;5034623;28;20223;-60
2021/01/07 01:52:51;;;;;;;7.00;6.30;;;6.00;99.90;;;;;;5034266;28;20198;-60
2021/01/07 01:55:17;;;;;;;7.60;6.80;;;6.00;99.90;;;;;;5033619;28;20605;-60
2021/01/07 01:57:46;;;;;;;8.10;7.07;;;6.00;99.90;;;;;;5034118;28;20214;-60
2021/01/07 02:00:13;;;;;;;7.80;6.80;;;5.90;99.90;;;;;;5034414;28;20210;-60
2021/01/07 02:02:39;;;;;;;7.47;6.67;;;5.90;99.90;;;;;;5034430;28;20229;-59
2021/01/07 02:05:06;;;;;;;7.93;6.73;;;5.90;99.90;;;;;;5034071;28;20280;-60
2021/01/07 02:07:34;;;;;;;9.47;6.80;;;5.80;99.90;;;;;;5033685;28;20202;-61
2021/01/07 02:10:02;;;;;;;8.50;7.23;;;5.80;99.90;;;;;;5033748;28;20232;-60
2021/01/07 02:12:28;;;;;;;8.43;7.00;;;5.80;99.90;;;;;;5033937;28;20202;-59
2021/01/07 02:14:54;;;;;;;9.27;7.20;;;5.70;99.90;;;;;;5033482;28;20234;-60
2021/01/07 02:17:21;;;;;;;7.87;7.07;;;5.70;99.90;;;;;;5033721;28;20202;-61
2021/01/07 02:19:47;;;;;;;8.13;7.20;;;5.70;99.90;;;;;;5033710;28;20394;-60
2021/01/07 02:22:14;;;;;;;7.43;6.57;;;5.70;99.90;;;;;;5033930;28;20222;-60
2021/01/07 02:24:41;;;;;;;7.57;6.77;;;5.70;99.90;;;;;;5033259;28;20260;-60
2021/01/07 02:27:09;;;;;;;8.07;7.10;;;5.70;99.90;;;;;;5033844;28;20213;-60
2021/01/07 02:29:36;;;;;;;7.70;6.90;;;5.70;99.90;;;;;;5033340;28;20233;-60
2021/01/07 02:32:02;;;;;;;7.73;6.93;;;5.70;99.90;;;;;;5033347;28;20551;-60
2021/01/07 02:34:28;;;;;;;8.10;7.20;;;5.70;99.90;;;;;;5033236;28;20356;-60
2021/01/07 02:36:55;;;;;;;8.23;7.10;;;5.70;99.90;;;;;;5033184;28;20210;-60
2021/01/07 02:39:22;;;;;;;8.07;7.00;;;5.70;99.90;;;;;;5032951;28;20559;-60
2021/01/07 02:41:51;;;;;;;8.70;7.43;;;5.70;99.90;;;;;;5033210;28;20206;-60
2021/01/07 02:44:18;;;;;;;8.50;7.57;;;5.70;99.90;;;;;;5033155;28;20210;-60
2021/01/07 02:46:44;;;;;;;10.03;7.73;;;5.60;99.90;;;;;;5033267;28;20230;-59
2021/01/07 02:49:10;;;;;;;9.20;7.40;;;5.70;99.90;;;;;;5033162;28;20233;-59
2021/01/07 02:51:36;;;;;;;9.27;8.07;;;5.70;99.90;;;;;;5033647;28;20213;-60
2021/01/07 02:54:03;;;;;;;9.87;8.10;;;5.70;99.90;;;;;;5032803;28;20210;-60
2021/01/07 02:56:30;;;;;;;9.23;7.77;;;5.70;99.90;;;;;;5033634;28;20238;-59
2021/01/07 02:58:56;;;;;;;8.93;7.73;;;5.70;99.90;;;;;;5033136;28;20217;-60
2021/01/07 03:01:23;;;;;;;8.10;7.20;;;5.70;99.90;;;;;;5033153;28;20301;-60
2021/01/07 03:03:49;;;;;;;9.23;7.67;;;5.80;99.90;;;;;;5032581;28;20709;-60
2021/01/07 03:06:15;;;;;;;8.77;7.00;;;5.70;99.90;;;;;;5033250;28;20226;-60
2021/01/07 03:08:42;;;;;;;9.50;8.03;;;5.80;99.90;;;;;;5033089;28;20222;-60
2021/01/07 03:11:08;;;;;;;8.77;7.20;;;5.70;99.90;;;;;;5033221;28;20203;-60
2021/01/07 03:13:35;;;;;;;8.17;7.00;;;5.80;99.90;;;;;;5032805;28;20239;-59
2021/01/07 03:16:01;;;;;;;10.77;7.57;;;5.80;99.90;;;;;;5057539;22;20226;-61
2021/01/07 03:18:27;;;;;;;8.50;7.53;;;5.70;99.90;;;;;;5041988;28;20558;-61
2021/01/07 03:20:54;;;;;;;9.40;7.43;;;5.60;99.90;;;;;;5039736;28;20211;-61
2021/01/07 03:23:20;;;;;;;8.63;6.97;;;5.60;99.90;;;;;;5033751;28;20226;-61
2021/01/07 03:25:46;;;;;;;10.60;7.93;;;5.60;99.90;;;;;;5033500;28;20226;-60
2021/01/07 03:28:12;;;;;;;9.27;7.70;;;5.60;99.90;;;;;;5033779;28;20217;-61
2021/01/07 03:30:40;;;;;;;11.00;7.67;;;5.60;99.90;;;;;;5033266;28;20214;-61
2021/01/07 03:33:06;;;;;;;9.23;7.73;;;5.60;99.90;;;;;;5032571;28;20565;-60
2021/01/07 03:35:33;;;;;;;9.23;8.00;;;5.60;99.90;;;;;;5032122;28;20230;-61
2021/01/07 03:37:59;;;;;;;9.07;7.53;;;5.70;99.90;;;;;;5032118;28;20213;-61
2021/01/07 03:40:25;;;;;;;9.07;7.63;;;5.70;99.90;;;;;;5032590;28;20229;-61
2021/01/07 03:42:51;;;;;;;8.80;7.37;;;5.60;99.90;;;;;;5032347;28;20221;-61
2021/01/07 03:45:17;;;;;;;10.33;8.13;;;5.60;99.90;;;;;;5031851;28;20226;-61
2021/01/07 03:47:44;;;;;;;9.70;7.57;;;5.60;99.90;;;;;;5031883;28;20506;-61
2021/01/07 03:50:11;;;;;;;9.53;7.43;;;5.60;99.90;;;;;;5032276;28;20210;-62
2021/01/07 03:52:38;;;;;;;10.10;7.90;;;5.50;99.90;;;;;;5032061;28;20206;-61
2021/01/07 03:55:05;;;;;;;11.80;7.93;;;5.50;99.90;;;;;;5031836;28;20213;-61
2021/01/07 03:57:31;;;;;;;9.33;8.10;;;5.50;99.90;;;;;;5031950;28;20202;-61
2021/01/07 03:59:57;;;;;;;12.80;7.50;;;5.50;99.90;;;;;;5032232;28;20206;-61
2021/01/07 04:02:24;;;;;;;10.83;7.67;;;5.50;99.90;;;;;;5031744;28;20284;-61
2021/01/07 04:04:51;;;;;;;11.33;7.50;;;5.40;99.90;;;;;;5031587;28;20233;-61
2021/01/07 04:07:17;;;;;;;8.00;6.93;;;5.50;99.90;;;;;;5031146;28;20210;-61
2021/01/07 04:09:43;;;;;;;11.40;9.13;;;5.50;99.90;;;;;;5031805;28;20202;-62
2021/01/07 04:12:09;;;;;;;9.70;8.00;;;5.40;99.90;;;;;;5031927;28;20206;-62
2021/01/07 04:14:35;;;;;;;9.73;7.70;;;5.50;99.90;;;;;;5031436;28;20210;-61
2021/01/07 04:17:02;;;;;;;12.43;9.63;;;5.50;99.90;;;;;;5031843;28;20242;-61
2021/01/07 04:19:28;;;;;;;9.67;7.60;;;5.50;99.90;;;;;;5031641;28;20202;-61
2021/01/07 04:21:55;;;;;;;9.60;7.30;;;5.60;99.90;;;;;;5031329;28;20216;-61
2021/01/07 04:24:21;;;;;;;9.10;7.43;;;5.60;99.90;;;;;;5031361;28;20206;-61
2021/01/07 04:26:47;;;;;;;8.37;7.33;;;5.60;99.90;;;;;;5031489;28;20222;-61
2021/01/07 04:29:14;;;;;;;12.53;8.60;;;5.40;99.90;;;;;;5031253;28;20206;-61
2021/01/07 04:31:40;;;;;;;9.43;8.13;;;5.20;99.90;;;;;;5031899;28;20209;-61
2021/01/07 04:34:06;;;;;;;10.83;8.53;;;5.00;99.90;;;;;;5031515;28;20206;-62
2021/01/07 04:36:33;;;;;;;10.43;8.07;;;5.00;99.90;;;;;;5031471;28;20460;-61
2021/01/07 04:39:00;;;;;;;10.20;8.33;;;5.10;99.90;;;;;;5031120;28;20202;-61
2021/01/07 04:41:26;;;;;;;9.03;7.63;;;5.00;99.90;;;;;;5031369;28;20256;-61
2021/01/07 04:43:56;;;;;;;9.30;7.93;;;4.90;99.90;;;;;;5030879;28;20230;-61
2021/01/07 04:46:23;;;;;;;9.03;7.80;;;4.90;99.90;;;;;;5031329;28;20299;-61
2021/01/07 04:48:49;;;;;;;9.93;8.43;;;5.00;99.90;;;;;;5031001;28;20215;-61
2021/01/07 04:51:16;;;;;;;10.10;8.13;;;4.80;99.90;;;;;;5031440;28;20209;-61
2021/01/07 04:53:42;;;;;;;9.70;7.93;;;4.70;99.90;;;;;;5031274;28;20234;-61
2021/01/07 04:56:09;;;;;;;9.10;7.63;;;4.80;99.90;;;;;;5031595;28;20272;-61
2021/01/07 04:58:36;;;;;;;9.83;8.13;;;5.00;99.90;;;;;;5030958;28;20206;-61
2021/01/07 05:01:02;;;;;;;12.57;10.47;;;5.10;99.90;;;;;;5031217;28;20594;-61
2021/01/07 05:03:31;;;;;;;12.47;8.37;;;5.00;99.90;;;;;;5031299;28;20222;-61
2021/01/07 05:05:57;;;;;;;9.47;8.20;;;5.10;99.90;;;;;;5031474;28;20317;-61
2021/01/07 05:08:24;;;;;;;11.93;8.13;;;5.20;99.90;;;;;;5031084;28;20206;-61
2021/01/07 05:10:51;;;;;;;10.13;8.13;;;5.20;99.90;;;;;;5031050;28;20206;-61
2021/01/07 05:13:19;;;;;;;8.97;7.23;;;5.30;99.90;;;;;;5031174;28;20209;-61
2021/01/07 05:15:45;;;;;;;10.10;7.93;;;5.30;99.90;;;;;;5031037;28;20245;-61
2021/01/07 05:18:12;;;;;;;9.87;7.87;;;5.40;99.90;;;;;;5033333;28;20256;-62
2021/01/07 05:20:39;;;;;;;10.63;7.50;;;5.40;99.90;;;;;;5035998;28;20562;-61
2021/01/07 05:23:07;;;;;;;8.27;7.10;;;5.40;99.90;;;;;;5045782;28;20225;-61
2021/01/07 05:25:33;;;;;;;13.07;7.20;;;5.40;99.90;;;;;;5047245;28;20230;-61
2021/01/07 05:28:00;;;;;;;9.17;7.17;;;5.40;99.90;;;;;;5045761;28;20213;-62
2021/01/07 05:30:28;;;;;;;8.73;6.93;;;5.40;99.90;;;;;;5047052;28;20219;-61
2021/01/07 05:33:00;;;;;;;12.60;7.50;;;5.40;99.90;;;;;;5044250;28;20206;-61
2021/01/07 05:35:27;;;;;;;8.50;7.30;;;5.50;99.90;;;;;;5043453;28;20226;-61
2021/01/07 05:37:53;;;;;;;9.17;7.40;;;5.60;99.90;;;;;;5040558;28;20207;-62
2021/01/07 05:40:22;;;;;;;10.87;7.83;;;5.60;99.90;;;;;;5035035;28;20502;-61
2021/01/07 05:42:49;;;;;;;10.20;7.30;;;5.70;99.90;;;;;;5034567;28;20226;-61
2021/01/07 05:45:17;;;;;;;8.90;6.33;;;5.70;99.90;;;;;;5034673;28;20287;-61
2021/01/07 05:47:45;;;;;;;6.57;5.50;;;5.70;99.90;;;;;;5034877;28;20206;-61
2021/01/07 05:50:13;;;;;;;6.83;5.33;;;5.70;99.90;;;;;;5034634;28;20210;-61
2021/01/07 05:52:44;;;;;;;6.10;5.20;;;5.50;99.90;;;;;;5034705;28;20625;-61
2021/01/07 05:55:14;;;;;;;6.03;5.00;;;5.50;99.90;;;;;;5034421;28;20247;-61
2021/01/07 05:57:41;;;;;;;5.73;4.43;;;5.50;99.90;;;;;;5034902;28;20268;-61
2021/01/07 06:00:09;;;;;;;6.43;4.83;;;5.50;99.90;;;;;;5034761;28;20206;-61
2021/01/07 06:02:39;;;;;;;6.33;5.40;;;5.60;99.90;;;;;;5035109;28;20234;-61
2021/01/07 06:05:08;;;;;;;5.63;4.40;;;5.60;99.90;;;;;;5034013;28;20209;-61
2021/01/07 06:07:35;;;;;;;5.10;4.40;;;5.60;99.90;;;;;;5034660;28;20207;-61
2021/01/07 06:10:03;;;;;;;5.00;4.50;;;5.60;99.90;;;;;;5035174;28;20218;-61
2021/01/07 06:12:29;;;;;;;10.97;8.80;;;5.60;99.90;;;;;;5036266;28;20206;-61
2021/01/07 06:14:59;;;;;;;9.40;6.50;;;5.60;99.90;;;;;;5035042;28;20221;-61
2021/01/07 06:17:26;;;;;;;10.90;7.27;;;5.60;99.90;;;;;;5034919;28;20292;-61
2021/01/07 06:19:53;;;;;;;5.07;4.57;;;5.60;99.90;;;;;;5034529;28;20597;-61
2021/01/07 06:22:21;;;;;;;5.97;4.50;;;5.70;99.90;;;;;;5034475;28;20206;-60
2021/01/07 06:24:56;;;;;;;5.37;4.57;;;5.70;99.90;;;;;;5034486;28;20213;-61
2021/01/07 06:27:25;;;;;;;4.20;3.77;;;5.70;99.90;;;;;;5034772;28;20210;-61
2021/01/07 06:30:01;;;;;;;5.47;4.23;;;5.70;99.90;;;;;;5033800;28;20210;-62
2021/01/07 06:32:29;;;;;;;4.93;4.00;;;5.70;99.90;;;;;;5035674;28;20202;-62
2021/01/07 06:34:57;;;;;;;4.80;4.13;;;5.70;99.90;;;;;;5035715;28;20206;-61
2021/01/07 06:37:32;;;;;;;5.10;4.30;;;5.50;99.90;;;;;;5039802;28;20214;-61
2021/01/07 06:39:58;;;;;;;5.57;4.23;;;5.50;99.90;;;;;;5041161;28;20228;-62
2021/01/07 06:42:25;;;;;;;7.03;5.43;;;5.50;99.90;;;;;;5043153;28;20226;-61
2021/01/07 06:44:52;;;;;;;6.17;4.83;;;5.50;99.90;;;;;;5045040;28;20712;-61
2021/01/07 06:47:20;;;;;;;6.10;4.83;;;5.40;99.90;;;;;;5042693;28;20638;-61
2021/01/07 06:49:48;;;;;;;8.33;5.40;;;5.40;99.90;;;;;;5035647;28;20210;-62
2021/01/07 06:52:14;;;;;;;5.53;4.80;;;5.40;99.90;;;;;;5050315;28;20257;-62
2021/01/07 06:54:44;;;;;;;10.50;7.70;;;5.50;99.90;;;;;;5050506;28;20198;-62
2021/01/07 06:57:12;;;;;;;7.43;6.10;;;5.40;99.90;;;;;;5049843;28;20252;-62
2021/01/07 06:59:55;;;;;;;6.93;5.17;;;5.40;99.90;;;;;;5044427;28;20684;-62
2021/01/07 07:02:21;;;;;;;5.97;5.17;;;5.40;99.90;;;;;;5033883;28;20404;-62
2021/01/07 07:04:48;;;;;;;5.63;4.83;;;5.30;99.90;;;;;;5033200;28;20206;-62
2021/01/07 07:07:51;;;;;;;6.17;5.27;;;5.30;99.90;;;;;;5033500;28;20226;-62
2021/01/07 07:11:03;;;;;;;10.07;7.30;;;5.30;99.90;;;;;;5033597;28;20221;-62
2021/01/07 07:13:33;;;;;;;25.97;13.80;;;5.40;99.90;;;;;;5033201;28;20260;-62
2021/01/07 07:16:03;;;;;;;12.07;9.13;;;5.30;99.90;;;;;;5033253;28;20320;-62
2021/01/07 07:18:34;;;;;;;6.83;6.07;;;5.30;99.90;;;;;;5032911;28;20209;-62
2021/01/07 07:21:14;;;;;;;7.13;6.03;;;5.30;99.90;;;;;;5033185;28;20246;-62
2021/01/07 07:23:42;;;;;;;10.00;7.53;;;5.40;99.90;;;;;;5032403;28;20313;-62
2021/01/07 07:26:11;;;;;;;14.60;9.17;;;5.30;99.90;;;;;;5032608;28;20257;-62
2021/01/07 07:28:42;;;;;;;11.23;8.50;;;5.30;99.90;;;;;;5032401;28;20301;-62
2021/01/07 07:31:08;;;;;;;11.53;8.53;;;5.30;99.90;;;;;;5032695;28;20210;-62
2021/01/07 07:33:36;;;;;;;11.27;8.43;;;5.40;99.90;;;;;;5032487;28;20202;-62
2021/01/07 07:36:04;;;;;;;10.13;7.20;;;5.40;99.90;;;;;;5032325;28;20237;-62
2021/01/07 07:38:31;;;;;;;11.67;8.03;;;5.20;99.90;;;;;;5032491;28;20205;-62
2021/01/07 07:41:02;;;;;;;13.20;8.17;;;5.30;99.90;;;;;;5031388;28;20203;-62
2021/01/07 07:43:30;;;;;;;10.47;7.30;;;5.30;99.90;;;;;;5032124;28;20229;-62
2021/01/07 07:45:58;;;;;;;9.37;7.10;;;5.30;99.90;;;;;;5032696;28;20342;-62
2021/01/07 07:48:25;;;;;;;9.93;7.47;;;5.40;99.90;;;;;;5032462;28;20203;-62
2021/01/07 07:51:03;;;;;;;8.17;6.80;;;5.40;99.90;;;;;;5032442;28;20230;-61
2021/01/07 07:53:29;;;;;;;8.93;7.07;;;5.50;99.90;;;;;;5031976;28;20209;-61
2021/01/07 07:55:55;;;;;;;8.83;6.70;;;5.40;99.90;;;;;;5032123;28;20227;-61
2021/01/07 07:58:21;;;;;;;10.73;7.33;;;5.50;99.90;;;;;;5032207;28;20229;-61
2021/01/07 08:00:49;;;;;;;10.30;7.27;;;5.50;99.90;;;;;;5032748;28;20210;-62
2021/01/07 08:03:22;;;;;;;10.37;7.43;;;5.50;99.90;;;;;;5032783;28;20218;-61
2021/01/07 08:05:49;;;;;;;9.23;7.23;;;5.40;99.90;;;;;;5032053;28;20226;-61
2021/01/07 08:08:22;;;;;;;11.30;7.80;;;5.50;99.90;;;;;;5032475;28;20260;-61
2021/01/07 08:10:48;;;;;;;9.63;6.53;;;5.60;99.90;;;;;;5032657;28;20296;-61
2021/01/07 08:13:16;;;;;;;9.10;7.60;;;5.70;99.90;;;;;;5032498;28;20209;-61
2021/01/07 08:15:47;;;;;;;9.40;7.30;;;5.70;99.90;;;;;;5032143;28;20280;-61
2021/01/07 08:18:14;;;;;;;8.73;7.27;;;5.80;99.90;;;;;;5032257;28;20302;-61
2021/01/07 08:20:41;;;;;;;9.97;7.37;;;5.80;99.90;;;;;;5032748;28;20210;-61
2021/01/07 08:23:09;;;;;;;10.00;7.20;;;5.80;99.90;;;;;;5032150;28;20237;-62
2021/01/07 08:25:35;;;;;;;9.30;7.47;;;5.90;99.90;;;;;;5031659;28;20316;-61
2021/01/07 08:28:21;;;;;;;9.67;7.33;;;5.90;99.90;;;;;;5032341;28;20213;-62
2021/01/07 08:30:50;;;;;;;9.63;7.93;;;5.90;99.90;;;;;;5032116;28;20305;-61
2021/01/07 08:33:19;;;;;;;11.10;8.13;;;6.00;99.90;;;;;;5032383;28;20209;-62
2021/01/07 08:35:46;;;;;;;19.93;13.53;;;6.10;99.90;;;;;;5033777;28;20725;-61
2021/01/07 08:38:23;;;;;;;13.07;8.47;;;6.10;99.90;;;;;;5032996;28;20209;-62
2021/01/07 08:40:50;;;;;;;11.47;8.70;;;6.20;99.90;;;;;;5034054;28;20245;-62
2021/01/07 08:43:16;;;;;;;10.77;8.43;;;6.20;99.90;;;;;;5035012;28;20229;-62
2021/01/07 08:45:42;;;;;;;10.33;8.20;;;6.20;99.90;;;;;;5032160;28;20280;-62
2021/01/07 08:48:09;;;;;;;10.67;8.50;;;6.30;99.90;;;;;;5031285;28;20206;-62
2021/01/07 08:50:35;;;;;;;10.37;8.30;;;6.30;99.90;;;;;;5031306;28;20210;-63
2021/01/07 08:53:08;;;;;;;10.57;7.70;;;6.40;99.90;;;;;;5031491;28;20202;-62
2021/01/07 08:55:49;;;;;;;14.23;8.27;;;6.40;99.90;;;;;;5032898;28;20610;-64
2021/01/07 08:58:23;;;;;;;10.17;7.43;;;6.50;99.90;;;;;;5032976;28;20213;-61
2021/01/07 09:00:50;;;;;;;12.87;8.77;;;6.50;99.90;;;;;;5032620;28;20202;-62
2021/01/07 09:03:17;;;;;;;11.17;8.07;;;6.50;99.90;;;;;;5034227;28;20232;-62
2021/01/07 09:05:44;;;;;;;10.47;8.50;;;6.50;99.90;;;;;;5033754;28;20284;-61
2021/01/07 09:08:13;;;;;;;9.47;7.93;;;6.60;99.90;;;;;;5033041;28;20644;-62
2021/01/07 09:10:40;;;;;;;11.90;9.20;;;6.60;99.90;;;;;;5032306;28;20233;-62
2021/01/07 09:13:20;;;;;;;10.43;8.50;;;6.70;99.90;;;;;;5032152;28;20607;-62
2021/01/07 09:15:46;;;;;;;10.67;8.27;;;6.70;99.90;;;;;;5054190;22;20240;-60
2021/01/07 09:18:12;;;;;;;11.23;8.63;;;6.70;99.90;;;;;;5031066;28;20218;-60
2021/01/07 09:20:39;;;;;;;22.07;13.03;;;6.70;99.90;;;;;;5030627;28;20728;-60
2021/01/07 09:23:06;;;;;;;10.50;8.23;;;6.80;99.90;;;;;;5030750;28;20234;-59
2021/01/07 09:25:34;;;;;;;11.37;7.97;;;6.80;99.90;;;;;;5030474;28;20237;-59
2021/01/07 09:28:00;;;;;;;18.03;13.90;;;7.00;99.90;;;;;;5030466;28;20221;-59
2021/01/07 09:30:27;;;;;;;9.60;7.83;;;7.10;99.90;;;;;;5030894;28;20233;-59
2021/01/07 09:32:54;;;;;;;12.27;7.87;;;7.20;99.90;;;;;;5031372;28;20264;-59
2021/01/07 09:35:21;;;;;;;11.13;8.87;;;7.30;99.90;;;;;;5030901;28;20280;-59
2021/01/07 09:37:47;;;;;;;9.90;8.47;;;7.40;99.90;;;;;;5030494;28;20206;-59
2021/01/07 09:40:14;;;;;;;20.17;15.03;;;7.50;99.90;;;;;;5030597;28;20666;-59
2021/01/07 09:42:41;;;;;;;10.57;8.10;;;7.60;99.90;;;;;;5030556;28;20243;-59
2021/01/07 09:45:11;;;;;;;9.83;8.03;;;7.70;99.90;;;;;;5030029;28;20225;-60
2021/01/07 09:47:37;;;;;;;11.07;8.23;;;7.80;99.90;;;;;;5030379;28;20230;-59
2021/01/07 09:50:04;;;;;;;11.17;8.57;;;7.80;99.90;;;;;;5030070;28;20214;-59
2021/01/07 09:52:32;;;;;;;10.73;8.50;;;7.80;99.90;;;;;;5030596;28;20209;-59
2021/01/07 09:54:58;;;;;;;14.90;9.53;;;7.90;99.90;;;;;;5030164;28;20207;-59
2021/01/07 09:57:24;;;;;;;11.63;8.83;;;7.80;99.90;;;;;;5030914;28;20285;-59
2021/01/07 09:59:51;;;;;;;12.27;8.47;;;7.90;99.90;;;;;;5030702;28;20206;-59
2021/01/07 10:02:18;;;;;;;12.50;8.33;;;8.00;99.90;;;;;;5031151;28;20571;-59
2021/01/07 10:04:44;;;;;;;11.87;9.37;;;8.10;99.90;;;;;;5031181;28;20226;-59
2021/01/07 10:07:11;;;;;;;10.67;8.27;;;8.20;99.90;;;;;;5033772;28;20297;-58
2021/01/07 10:09:37;;;;;;;11.03;8.67;;;8.20;99.90;;;;;;5033747;28;20229;-58
2021/01/07 10:12:05;;;;;;;11.70;8.73;;;8.30;99.90;;;;;;5033995;28;20257;-59
2021/01/07 10:14:32;;;;;;;15.70;9.37;;;8.40;99.90;;;;;;5033456;28;20617;-59
2021/01/07 10:17:00;;;;;;;10.47;8.37;;;8.40;99.90;;;;;;5033424;28;20245;-59
2021/01/07 10:19:28;;;;;;;12.53;9.80;;;8.50;99.90;;;;;;5033450;28;20260;-59
2021/01/07 10:21:59;;;;;;;13.40;9.60;;;8.50;99.90;;;;;;5033918;28;20210;-59
2021/01/07 10:24:26;;;;;;;11.43;9.17;;;8.50;99.90;;;;;;5033288;28;20354;-58
2021/01/07 10:26:55;;;;;;;11.87;9.50;;;8.50;99.90;;;;;;5033479;28;20234;-59
2021/01/07 10:29:21;;;;;;;12.90;9.60;;;8.50;99.90;;;;;;5033226;28;20268;-59
2021/01/07 10:31:48;;;;;;;14.50;10.33;;;8.50;99.90;;;;;;5033294;28;20685;-59
2021/01/07 10:34:17;;;;;;;13.00;10.03;;;8.40;99.90;;;;;;5033226;28;20202;-59
2021/01/07 10:36:45;;;;;;;12.50;9.90;;;8.40;99.90;;;;;;5033535;28;20226;-58
2021/01/07 10:39:14;;;;;;;12.43;9.73;;;8.40;99.90;;;;;;5033268;28;20284;-59
2021/01/07 10:41:44;;;;;;;14.50;9.10;;;8.40;99.90;;;;;;5033512;28;20649;-59
2021/01/07 10:44:12;;;;;;;11.40;9.60;;;8.40;99.90;;;;;;5033139;28;20225;-59
2021/01/07 10:46:46;;;;;;;12.57;9.80;;;8.30;99.90;;;;;;5033697;28;20222;-59
2021/01/07 10:49:15;;;;;;;15.63;12.37;;;8.30;99.90;;;;;;5033450;28;20280;-59
2021/01/07 10:51:57;;;;;;;12.47;9.90;;;8.40;99.90;;;;;;5033278;28;20232;-59
2021/01/07 10:54:40;;;;;;;13.40;9.73;;;8.40;99.90;;;;;;5032921;28;20206;-59
2021/01/07 10:57:34;;;;;;;12.20;8.47;;;8.40;99.90;;;;;;5032932;28;20234;-58
2021/01/07 11:00:06;;;;;;;12.17;9.37;;;8.50;99.90;;;;;;5032702;28;20589;-58
2021/01/07 11:03:00;;;;;;;12.47;9.63;;;8.50;99.90;;;;;;5032561;28;20302;-59
2021/01/07 11:05:31;;;;;;;13.07;10.00;;;8.60;99.90;;;;;;5031427;28;20206;-59
2021/01/07 11:08:14;;;;;;;14.97;10.80;;;8.60;99.90;;;;;;5032811;28;20233;-59
2021/01/07 11:10:44;;;;;;;11.07;9.10;;;8.60;99.90;;;;;;5032737;28;20217;-60
2021/01/07 11:13:11;;;;;;;11.43;9.10;;;8.70;99.90;;;;;;5032932;28;20210;-60
2021/01/07 11:15:41;;;;;;;11.63;8.87;;;8.60;99.90;;;;;;5031903;28;20264;-60
2021/01/07 11:18:08;;;;;;;11.13;8.80;;;8.60;99.90;;;;;;5032496;28;20206;-59
2021/01/07 11:20:39;;;;;;;10.90;8.63;;;8.70;99.90;;;;;;5032763;28;20690;-59
2021/01/07 11:23:06;;;;;;;8.93;7.50;;;8.70;99.90;;;;;;5033003;28;20222;-59
2021/01/07 11:25:34;;;;;;;10.47;7.83;;;8.80;99.90;;;;;;5032190;28;20670;-59
2021/01/07 11:28:01;;;;;;;10.17;7.77;;;8.90;99.90;;;;;;5032044;28;20635;-59
2021/01/07 11:30:27;;;;;;;9.43;7.60;;;8.90;99.70;;;;;;5032787;28;20210;-59
2021/01/07 11:32:54;;;;;;;8.87;7.17;;;9.00;99.90;;;;;;5032902;28;20198;-59
2021/01/07 11:35:21;;;;;;;11.17;7.23;;;9.00;99.20;;;;;;5032755;28;20206;-59
2021/01/07 11:38:01;;;;;;;10.80;8.83;;;8.90;99.20;;;;;;5032056;28;20642;-59
2021/01/07 11:40:42;;;;;;;8.30;7.10;;;8.90;99.70;;;;;;5032275;28;20194;-59
2021/01/07 11:43:41;;;;;;;9.37;7.50;;;9.00;99.60;;;;;;5032130;28;20222;-59
2021/01/07 11:46:12;;;;;;;8.57;7.10;;;9.00;99.90;;;;;;5007877;28;20226;-58
2021/01/07 11:48:42;;;;;;;9.83;7.17;;;9.10;99.00;;;;;;5031874;28;20202;-59
2021/01/07 11:51:10;;;;;;;7.93;6.80;;;9.10;98.60;;;;;;5032166;28;20210;-59
2021/01/07 11:53:37;;;;;;;8.07;6.80;;;9.10;98.70;;;;;;5031920;28;20265;-59
2021/01/07 11:56:05;;;;;;;9.43;7.33;;;9.20;98.60;;;;;;5031816;28;20230;-59
2021/01/07 11:58:31;;;;;;;8.37;6.80;;;9.20;98.70;;;;;;5031770;28;20300;-60
2021/01/07 12:01:00;;;;;;;9.13;6.97;;;9.20;98.30;;;;;;5031856;28;20669;-59
2021/01/07 12:03:30;;;;;;;8.50;5.90;;;9.20;98.20;;;;;;5031745;28;20446;-60
2021/01/07 12:06:00;;;;;;;6.13;4.83;;;9.20;98.20;;;;;;5031680;28;20237;-59
2021/01/07 12:09:04;;;;;;;6.60;5.13;;;9.10;97.20;;;;;;5031640;28;20213;-59
2021/01/07 12:11:36;;;;;;;14.10;9.43;;;9.10;96.90;;;;;;5022152;28;20213;-60
2021/01/07 12:14:13;;;;;;;8.27;6.07;;;9.10;96.80;;;;;;5031304;28;20712;-59
2021/01/07 12:16:49;;;;;;;7.63;5.87;;;9.10;97.20;;;;;;5031069;28;20233;-60
2021/01/07 12:19:15;;;;;;;8.27;5.63;;;8.90;96.70;;;;;;5031764;28;20206;-60
2021/01/07 12:21:42;;;;;;;7.03;5.43;;;8.90;97.30;;;;;;5031826;28;20202;-62
2021/01/07 12:24:11;;;;;;;8.40;5.87;;;9.00;96.90;;;;;;5031252;28;20233;-61
2021/01/07 12:26:39;;;;;;;8.33;6.30;;;8.90;97.30;;;;;;5030931;28;20226;-62
2021/01/07 12:29:06;;;;;;;7.63;6.20;;;8.90;97.70;;;;;;5031666;28;20210;-62
2021/01/07 12:31:36;;;;;;;7.33;6.23;;;9.00;97.60;;;;;;5031686;28;20206;-61
2021/01/07 12:34:18;;;;;;;7.87;6.33;;;8.90;97.70;;;;;;5031977;28;20224;-61
2021/01/07 12:36:55;;;;;;;8.13;6.77;;;8.90;97.90;;;;;;5031835;28;20237;-61
2021/01/07 12:39:32;;;;;;;7.60;5.97;;;8.80;98.00;;;;;;5031486;28;20213;-61
2021/01/07 12:42:01;;;;;;;8.00;6.17;;;8.70;97.60;;;;;;5031225;28;20201;-61
2021/01/07 12:44:31;;;;;;;8.47;5.80;;;8.70;97.60;;;;;;5030669;28;20702;-61
2021/01/07 12:46:58;;;;;;;9.90;7.60;;;8.60;97.20;;;;;;5031256;28;20285;-60
2021/01/07 12:49:29;;;;;;;10.23;7.30;;;8.60;97.40;;;;;;5030716;28;20202;-60
2021/01/07 12:51:55;;;;;;;6.47;5.67;;;8.70;97.50;;;;;;5031392;28;20186;-60
2021/01/07 12:54:22;;;;;;;7.60;6.10;;;8.70;97.50;;;;;;5030829;28;20670;-61
2021/01/07 12:56:58;;;;;;;7.03;5.67;;;8.70;97.70;;;;;;5031343;28;20230;-61
2021/01/07 12:59:30;;;;;;;7.27;5.20;;;8.80;97.40;;;;;;5031133;28;20233;-61